TimeEST,TemperatureF,Dew PointF,Humidity,Sea Level PressureIn,VisibilityMPH,Wind Direction,Wind SpeedMPH,Gust SpeedMPH,PrecipitationIn,Events,Conditions,WindDirDegrees,DateUTC
12:52 AM,44.1,34.0,68,29.93,10.0,NNW,5.8,-,N/A,,Overcast,340,2012-11-05 05:52:00
1:52 AM,44.1,35.1,71,29.93,10.0,NNW,6.9,-,N/A,,Overcast,330,2012-11-05 06:52:00
2:52 AM,43.0,35.1,74,29.92,10.0,Variable,6.9,-,N/A,,Overcast,0,2012-11-05 07:52:00
3:52 AM,43.0,36.0,76,29.92,10.0,Variable,6.9,-,N/A,,Overcast,0,2012-11-05 08:52:00
4:52 AM,43.0,36.0,76,29.93,10.0,NW,5.8,-,N/A,,Overcast,320,2012-11-05 09:52:00
5:52 AM,43.0,36.0,76,29.94,10.0,NW,6.9,-,N/A,,Overcast,320,2012-11-05 10:52:00
6:01 AM,42.8,35.6,76,29.93,10.0,Variable,5.8,-,N/A,,Overcast,0,2012-11-05 11:01:00
6:42 AM,42.8,35.6,76,29.94,10.0,Variable,5.8,-,N/A,,Overcast,0,2012-11-05 11:42:00
6:52 AM,43.0,36.0,76,29.95,10.0,NW,8.1,-,N/A,,Overcast,320,2012-11-05 11:52:00
7:49 AM,42.8,37.4,81,29.95,10.0,NW,6.9,-,N/A,,Overcast,310,2012-11-05 12:49:00
7:52 AM,43.0,37.0,80,29.96,10.0,NW,8.1,-,N/A,,Overcast,310,2012-11-05 12:52:00
8:13 AM,42.8,37.4,81,29.95,10.0,NW,8.1,-,N/A,,Overcast,310,2012-11-05 13:13:00
8:27 AM,44.6,37.4,76,29.96,10.0,Variable,5.8,-,N/A,,Overcast,0,2012-11-05 13:27:00
8:52 AM,43.0,37.9,82,29.97,10.0,Variable,5.8,-,N/A,,Overcast,0,2012-11-05 13:52:00
9:52 AM,43.0,37.0,80,29.96,10.0,Variable,4.6,-,N/A,,Overcast,0,2012-11-05 14:52:00
10:52 AM,42.1,37.0,82,29.96,10.0,Variable,3.5,-,N/A,,Overcast,0,2012-11-05 15:52:00
11:19 AM,42.8,39.2,87,29.95,3.0,Variable,5.8,-,0.01,Rain,Light Rain,0,2012-11-05 16:19:00
11:44 AM,42.8,37.4,81,29.95,10.0,North,8.1,-,0.02,Rain,Light Rain,10,2012-11-05 16:44:00
11:52 AM,42.1,37.9,85,29.95,10.0,North,8.1,-,0.02,Rain,Light Rain,350,2012-11-05 16:52:00
12:52 PM,42.1,37.0,82,29.95,10.0,Variable,4.6,-,0.00,Rain,Light Rain,0,2012-11-05 17:52:00
1:21 PM,41.0,35.6,81,29.94,10.0,North,6.9,-,0.00,Rain,Light Rain,350,2012-11-05 18:21:00
1:52 PM,41.0,36.0,82,29.94,10.0,Variable,4.6,-,0.00,,Overcast,0,2012-11-05 18:52:00
2:52 PM,42.1,34.0,73,29.96,10.0,North,6.9,-,N/A,,Overcast,350,2012-11-05 19:52:00
3:52 PM,42.1,32.0,67,29.98,10.0,Variable,4.6,-,N/A,,Overcast,0,2012-11-05 20:52:00
4:52 PM,41.0,32.0,70,30.00,10.0,Variable,4.6,-,N/A,,Overcast,0,2012-11-05 21:52:00
5:52 PM,41.0,30.9,67,30.03,10.0,Variable,5.8,-,N/A,,Overcast,0,2012-11-05 22:52:00
6:52 PM,39.9,28.0,63,30.04,10.0,Variable,3.5,-,N/A,,Mostly Cloudy,0,2012-11-05 23:52:00
7:52 PM,41.0,25.0,53,30.06,10.0,NNW,5.8,-,N/A,,Overcast,330,2012-11-06 00:52:00
8:52 PM,39.9,25.0,55,30.08,10.0,Variable,4.6,-,N/A,,Overcast,0,2012-11-06 01:52:00
9:52 PM,39.0,25.0,57,30.09,10.0,NW,6.9,-,N/A,,Mostly Cloudy,320,2012-11-06 02:52:00
10:52 PM,39.0,25.0,57,30.09,10.0,Variable,3.5,-,N/A,,Overcast,0,2012-11-06 03:52:00
11:52 PM,39.0,25.0,57,30.11,10.0,Variable,3.5,-,N/A,,Overcast,0,2012-11-06 04:52:00